sensor_id;sensor_type;location;lat;lon;timestamp;pressure;altitude;pressure_sealevel;temperature;humidity
19761;BME280;10039;42.632;23.408;2023-05-27T00:01:00;95075.38;;;15.35;83.32
19761;BME280;10039;42.632;23.408;2023-05-27T00:03:26;95081.25;;;15.43;82.71
19761;BME280;10039;42.632;23.408;2023-05-27T00:05:51;95086.81;;;15.48;82.28
19761;BME280;10039;42.632;23.408;2023-05-27T00:08:16;95078.59;;;15.52;82.24
19761;BME280;10039;42.632;23.408;2023-05-27T00:10:42;95069.25;;;15.56;82.22
19761;BME280;10039;42.632;23.408;2023-05-27T00:13:07;95078.75;;;15.48;82.72
19761;BME280;10039;42.632;23.408;2023-05-27T00:15:33;95074.34;;;15.63;82.07
19761;BME280;10039;42.632;23.408;2023-05-27T00:17:58;95084.84;;;15.70;81.65
19761;BME280;10039;42.632;23.408;2023-05-27T00:20:27;95069.63;;;15.76;81.26
19761;BME280;10039;42.632;23.408;2023-05-27T00:22:55;95058.50;;;15.65;81.90
19761;BME280;10039;42.632;23.408;2023-05-27T00:25:22;95064.63;;;15.87;81.28
19761;BME280;10039;42.632;23.408;2023-05-27T00:27:48;95056.66;;;15.83;81.46
19761;BME280;10039;42.632;23.408;2023-05-27T00:30:14;95046.91;;;15.77;80.98
19761;BME280;10039;42.632;23.408;2023-05-27T00:32:41;95063.28;;;15.91;80.95
19761;BME280;10039;42.632;23.408;2023-05-27T00:35:07;95062.81;;;15.84;80.63
19761;BME280;10039;42.632;23.408;2023-05-27T00:37:32;95052.47;;;15.82;81.57
19761;BME280;10039;42.632;23.408;2023-05-27T00:39:58;95051.16;;;15.87;80.99
19761;BME280;10039;42.632;23.408;2023-05-27T00:42:23;95036.63;;;15.84;80.85
19761;BME280;10039;42.632;23.408;2023-05-27T00:44:49;95013.63;;;15.53;81.56
19761;BME280;10039;42.632;23.408;2023-05-27T00:47:15;95040.97;;;15.82;81.35
19761;BME280;10039;42.632;23.408;2023-05-27T00:49:44;95038.88;;;15.86;80.84
19761;BME280;10039;42.632;23.408;2023-05-27T00:52:10;95014.06;;;15.82;80.55
19761;BME280;10039;42.632;23.408;2023-05-27T00:54:38;95030.41;;;15.96;79.89
19761;BME280;10039;42.632;23.408;2023-05-27T00:57:05;95020.56;;;16.02;79.58
19761;BME280;10039;42.632;23.408;2023-05-27T00:59:31;95019.78;;;16.02;79.87
19761;BME280;10039;42.632;23.408;2023-05-27T01:01:57;95016.38;;;16.10;79.79
19761;BME280;10039;42.632;23.408;2023-05-27T01:04:23;95000.19;;;15.92;80.25
19761;BME280;10039;42.632;23.408;2023-05-27T01:07:03;95006.19;;;15.96;80.94
19761;BME280;10039;42.632;23.408;2023-05-27T01:09:45;95007.09;;;16.02;80.68
19761;BME280;10039;42.632;23.408;2023-05-27T01:14:57;94996.50;;;16.17;79.56
19761;BME280;10039;42.632;23.408;2023-05-27T01:17:24;95000.28;;;16.28;79.55
19761;BME280;10039;42.632;23.408;2023-05-27T01:19:52;94992.63;;;16.27;79.26
19761;BME280;10039;42.632;23.408;2023-05-27T01:22:19;94969.09;;;16.00;79.24
19761;BME280;10039;42.632;23.408;2023-05-27T01:24:45;94991.59;;;16.24;79.63
19761;BME280;10039;42.632;23.408;2023-05-27T01:27:11;94994.13;;;16.28;79.85
19761;BME280;10039;42.632;23.408;2023-05-27T01:29:39;94952.66;;;16.07;79.34
19761;BME280;10039;42.632;23.408;2023-05-27T01:32:15;94976.78;;;16.20;79.77
19761;BME280;10039;42.632;23.408;2023-05-27T01:37:21;94974.06;;;16.11;80.63
19761;BME280;10039;42.632;23.408;2023-05-27T01:39:50;94974.22;;;16.07;80.92
19761;BME280;10039;42.632;23.408;2023-05-27T01:42:16;94952.75;;;15.95;81.08
19761;BME280;10039;42.632;23.408;2023-05-27T01:44:42;94963.44;;;16.07;80.97
19761;BME280;10039;42.632;23.408;2023-05-27T01:47:08;94953.25;;;16.11;80.68
19761;BME280;10039;42.632;23.408;2023-05-27T01:49:34;94957.75;;;16.14;80.15
19761;BME280;10039;42.632;23.408;2023-05-27T01:52:00;94967.63;;;16.08;80.07
19761;BME280;10039;42.632;23.408;2023-05-27T01:54:26;94962.22;;;15.99;80.46
19761;BME280;10039;42.632;23.408;2023-05-27T01:56:51;94967.13;;;16.01;80.27
19761;BME280;10039;42.632;23.408;2023-05-27T01:59:17;94965.94;;;16.02;80.03
19761;BME280;10039;42.632;23.408;2023-05-27T02:01:42;94967.72;;;15.96;80.66
19761;BME280;10039;42.632;23.408;2023-05-27T02:04:07;94977.00;;;15.95;80.80
19761;BME280;10039;42.632;23.408;2023-05-27T02:06:33;94975.06;;;15.95;80.87
19761;BME280;10039;42.632;23.408;2023-05-27T02:08:59;94974.75;;;15.93;80.94
19761;BME280;10039;42.632;23.408;2023-05-27T02:11:24;94969.50;;;15.81;81.55
19761;BME280;10039;42.632;23.408;2023-05-27T02:13:51;94981.47;;;15.89;81.05
19761;BME280;10039;42.632;23.408;2023-05-27T02:16:17;94974.72;;;15.84;80.94
19761;BME280;10039;42.632;23.408;2023-05-27T02:18:47;94970.09;;;15.85;81.17
19761;BME280;10039;42.632;23.408;2023-05-27T02:21:14;94969.91;;;15.79;81.28
19761;BME280;10039;42.632;23.408;2023-05-27T02:23:39;94948.94;;;15.66;81.26
19761;BME280;10039;42.632;23.408;2023-05-27T02:26:05;94967.53;;;15.81;81.65
19761;BME280;10039;42.632;23.408;2023-05-27T02:28:30;94969.69;;;15.56;83.56
19761;BME280;10039;42.632;23.408;2023-05-27T02:30:57;94964.44;;;15.53;83.33
19761;BME280;10039;42.632;23.408;2023-05-27T02:33:23;94972.25;;;15.60;82.66
19761;BME280;10039;42.632;23.408;2023-05-27T02:35:48;94978.06;;;15.58;83.57
19761;BME280;10039;42.632;23.408;2023-05-27T02:38:13;94969.50;;;15.51;84.11
19761;BME280;10039;42.632;23.408;2023-05-27T02:40:39;94966.78;;;15.42;84.84
19761;BME280;10039;42.632;23.408;2023-05-27T02:43:05;94973.66;;;15.43;84.69
19761;BME280;10039;42.632;23.408;2023-05-27T02:45:30;94972.16;;;15.42;84.88
19761;BME280;10039;42.632;23.408;2023-05-27T02:47:55;94973.31;;;15.32;85.98
19761;BME280;10039;42.632;23.408;2023-05-27T02:50:21;94967.97;;;15.41;85.61
19761;BME280;10039;42.632;23.408;2023-05-27T02:52:47;94959.28;;;15.37;84.96
19761;BME280;10039;42.632;23.408;2023-05-27T02:55:12;94970.56;;;15.53;83.99
19761;BME280;10039;42.632;23.408;2023-05-27T02:57:38;94964.44;;;15.53;83.69
19761;BME280;10039;42.632;23.408;2023-05-27T03:00:04;94970.16;;;15.64;82.89
19761;BME280;10039;42.632;23.408;2023-05-27T03:02:30;94962.72;;;15.68;82.03
19761;BME280;10039;42.632;23.408;2023-05-27T03:04:56;94967.38;;;15.76;82.04
19761;BME280;10039;42.632;23.408;2023-05-27T03:07:22;94967.06;;;15.74;81.95
19761;BME280;10039;42.632;23.408;2023-05-27T03:09:47;94941.16;;;15.59;81.78
19761;BME280;10039;42.632;23.408;2023-05-27T03:12:13;94959.44;;;15.73;81.48
19761;BME280;10039;42.632;23.408;2023-05-27T03:14:38;94934.53;;;15.51;82.39
19761;BME280;10039;42.632;23.408;2023-05-27T03:17:03;94973.22;;;15.74;81.65
19761;BME280;10039;42.632;23.408;2023-05-27T03:19:29;94977.72;;;15.86;81.28
19761;BME280;10039;42.632;23.408;2023-05-27T03:21:55;94962.13;;;15.73;82.16
19761;BME280;10039;42.632;23.408;2023-05-27T03:24:21;94973.31;;;15.71;82.30
19761;BME280;10039;42.632;23.408;2023-05-27T03:26:46;94970.94;;;15.73;82.44
19761;BME280;10039;42.632;23.408;2023-05-27T03:29:12;94968.56;;;15.75;82.18
19761;BME280;10039;42.632;23.408;2023-05-27T03:31:37;94972.59;;;15.79;81.51
19761;BME280;10039;42.632;23.408;2023-05-27T03:34:02;94979.78;;;15.82;81.22
19761;BME280;10039;42.632;23.408;2023-05-27T03:36:28;94981.13;;;15.78;82.18
19761;BME280;10039;42.632;23.408;2023-05-27T03:38:55;94983.66;;;15.73;82.72
19761;BME280;10039;42.632;23.408;2023-05-27T03:41:20;94982.47;;;15.73;82.79
19761;BME280;10039;42.632;23.408;2023-05-27T03:43:46;94986.66;;;15.74;82.75
19761;BME280;10039;42.632;23.408;2023-05-27T03:46:11;94985.59;;;15.72;82.86
19761;BME280;10039;42.632;23.408;2023-05-27T03:48:36;94990.53;;;15.73;82.72
19761;BME280;10039;42.632;23.408;2023-05-27T03:51:02;94993.25;;;15.73;83.05
19761;BME280;10039;42.632;23.408;2023-05-27T03:53:27;94989.34;;;15.74;82.95
19761;BME280;10039;42.632;23.408;2023-05-27T03:55:53;94983.53;;;15.76;82.57
19761;BME280;10039;42.632;23.408;2023-05-27T03:58:18;94991.44;;;15.79;82.06
19761;BME280;10039;42.632;23.408;2023-05-27T04:00:43;95001.91;;;15.77;83.25
19761;BME280;10039;42.632;23.408;2023-05-27T04:03:09;94983.97;;;15.74;82.38
19761;BME280;10039;42.632;23.408;2023-05-27T04:05:35;94995.06;;;15.76;83.27
19761;BME280;10039;42.632;23.408;2023-05-27T04:08:03;94984.53;;;15.70;82.98
19761;BME280;10039;42.632;23.408;2023-05-27T04:10:29;94998.47;;;15.77;83.59
19761;BME280;10039;42.632;23.408;2023-05-27T04:12:54;94982.78;;;15.75;82.68
19761;BME280;10039;42.632;23.408;2023-05-27T04:15:20;95001.03;;;15.80;83.23
19761;BME280;10039;42.632;23.408;2023-05-27T04:17:45;94999.81;;;15.81;83.52
19761;BME280;10039;42.632;23.408;2023-05-27T04:20:11;95003.44;;;15.87;83.18
19761;BME280;10039;42.632;23.408;2023-05-27T04:22:43;95002.53;;;15.81;84.03
19761;BME280;10039;42.632;23.408;2023-05-27T04:25:09;94991.06;;;15.90;83.25
19761;BME280;10039;42.632;23.408;2023-05-27T04:27:34;94978.47;;;15.87;82.86
19761;BME280;10039;42.632;23.408;2023-05-27T04:30:00;94988.53;;;15.95;83.04
19761;BME280;10039;42.632;23.408;2023-05-27T04:32:26;94983.41;;;15.88;84.76
19761;BME280;10039;42.632;23.408;2023-05-27T04:34:58;94990.91;;;15.93;83.83
19761;BME280;10039;42.632;23.408;2023-05-27T04:37:25;95006.63;;;16.04;82.46
19761;BME280;10039;42.632;23.408;2023-05-27T04:39:53;95005.19;;;16.12;81.62
19761;BME280;10039;42.632;23.408;2023-05-27T04:42:25;94989.44;;;16.10;81.43
19761;BME280;10039;42.632;23.408;2023-05-27T04:44:50;94999.94;;;16.17;81.50
19761;BME280;10039;42.632;23.408;2023-05-27T04:47:16;95004.75;;;16.22;81.25
19761;BME280;10039;42.632;23.408;2023-05-27T04:49:42;94999.63;;;16.15;82.65
19761;BME280;10039;42.632;23.408;2023-05-27T04:52:07;94982.28;;;16.16;81.47
19761;BME280;10039;42.632;23.408;2023-05-27T04:54:33;94997.75;;;16.25;81.40
19761;BME280;10039;42.632;23.408;2023-05-27T04:56:59;94968.84;;;16.25;80.33
19761;BME280;10039;42.632;23.408;2023-05-27T04:59:25;94997.63;;;16.46;80.84
19761;BME280;10039;42.632;23.408;2023-05-27T05:02:00;94999.59;;;16.46;82.63
19761;BME280;10039;42.632;23.408;2023-05-27T05:04:36;95009.31;;;16.52;81.41
19761;BME280;10039;42.632;23.408;2023-05-27T05:07:02;95006.34;;;16.59;81.75
19761;BME280;10039;42.632;23.408;2023-05-27T05:09:29;95015.03;;;16.63;81.58
19761;BME280;10039;42.632;23.408;2023-05-27T05:11:54;95006.03;;;16.57;81.12
19761;BME280;10039;42.632;23.408;2023-05-27T05:14:20;95013.22;;;16.60;81.09
19761;BME280;10039;42.632;23.408;2023-05-27T05:16:45;94989.44;;;16.50;80.58
19761;BME280;10039;42.632;23.408;2023-05-27T05:19:11;95005.91;;;16.70;80.76
19761;BME280;10039;42.632;23.408;2023-05-27T05:21:36;95005.16;;;16.78;79.11
19761;BME280;10039;42.632;23.408;2023-05-27T05:24:02;95010.84;;;16.80;79.99
19761;BME280;10039;42.632;23.408;2023-05-27T05:26:29;95014.13;;;16.84;80.22
19761;BME280;10039;42.632;23.408;2023-05-27T05:28:54;94976.25;;;16.61;79.99
19761;BME280;10039;42.632;23.408;2023-05-27T05:31:20;95002.47;;;16.87;79.66
19761;BME280;10039;42.632;23.408;2023-05-27T05:33:45;95017.44;;;16.97;79.42
19761;BME280;10039;42.632;23.408;2023-05-27T05:36:11;94981.78;;;16.84;78.71
19761;BME280;10039;42.632;23.408;2023-05-27T05:38:36;94999.59;;;17.08;78.36
19761;BME280;10039;42.632;23.408;2023-05-27T05:41:03;95009.66;;;16.99;78.80
19761;BME280;10039;42.632;23.408;2023-05-27T05:43:28;95000.50;;;16.96;78.98
19761;BME280;10039;42.632;23.408;2023-05-27T05:45:54;95021.47;;;17.10;78.73
19761;BME280;10039;42.632;23.408;2023-05-27T05:48:19;95015.78;;;17.08;78.40
19761;BME280;10039;42.632;23.408;2023-05-27T05:50:45;95021.31;;;17.14;79.91
19761;BME280;10039;42.632;23.408;2023-05-27T05:53:10;95020.56;;;17.22;79.19
19761;BME280;10039;42.632;23.408;2023-05-27T05:55:36;95027.03;;;17.34;77.60
19761;BME280;10039;42.632;23.408;2023-05-27T05:58:02;95023.28;;;17.31;77.96
19761;BME280;10039;42.632;23.408;2023-05-27T06:00:27;95027.00;;;17.43;78.11
19761;BME280;10039;42.632;23.408;2023-05-27T06:02:53;95025.66;;;17.47;77.82
19761;BME280;10039;42.632;23.408;2023-05-27T06:05:19;95037.47;;;17.59;77.45
19761;BME280;10039;42.632;23.408;2023-05-27T06:07:44;95031.47;;;17.64;78.17
19761;BME280;10039;42.632;23.408;2023-05-27T06:10:10;95041.19;;;17.70;77.61
19761;BME280;10039;42.632;23.408;2023-05-27T06:12:36;95040.44;;;17.70;77.66
19761;BME280;10039;42.632;23.408;2023-05-27T06:15:02;95039.75;;;17.51;78.30
19761;BME280;10039;42.632;23.408;2023-05-27T06:17:27;95038.38;;;17.56;78.48
19761;BME280;10039;42.632;23.408;2023-05-27T06:19:53;95036.28;;;17.60;77.71
19761;BME280;10039;42.632;23.408;2023-05-27T06:22:18;95046.13;;;17.72;77.36
19761;BME280;10039;42.632;23.408;2023-05-27T06:24:44;95047.78;;;17.78;76.49
19761;BME280;10039;42.632;23.408;2023-05-27T06:27:09;95044.91;;;17.82;75.89
19761;BME280;10039;42.632;23.408;2023-05-27T06:29:35;95042.50;;;17.84;76.06
19761;BME280;10039;42.632;23.408;2023-05-27T06:32:01;95039.06;;;17.83;76.57
19761;BME280;10039;42.632;23.408;2023-05-27T06:34:26;95041.31;;;17.85;76.46
19761;BME280;10039;42.632;23.408;2023-05-27T06:36:51;95043.00;;;17.73;75.96
19761;BME280;10039;42.632;23.408;2023-05-27T06:39:17;95049.53;;;17.90;76.27
19761;BME280;10039;42.632;23.408;2023-05-27T06:41:43;95046.69;;;17.94;75.90
19761;BME280;10039;42.632;23.408;2023-05-27T06:44:08;95056.13;;;17.89;76.04
19761;BME280;10039;42.632;23.408;2023-05-27T06:46:34;95059.88;;;17.92;76.25
19761;BME280;10039;42.632;23.408;2023-05-27T06:48:59;95045.91;;;17.93;76.00
19761;BME280;10039;42.632;23.408;2023-05-27T06:51:25;95060.19;;;17.94;75.92
19761;BME280;10039;42.632;23.408;2023-05-27T06:53:52;95064.03;;;18.01;75.37
19761;BME280;10039;42.632;23.408;2023-05-27T06:56:17;95053.69;;;18.00;76.24
19761;BME280;10039;42.632;23.408;2023-05-27T06:58:45;95061.47;;;18.16;76.18
19761;BME280;10039;42.632;23.408;2023-05-27T07:01:10;95061.47;;;18.16;75.90
19761;BME280;10039;42.632;23.408;2023-05-27T07:03:36;95062.47;;;18.18;76.07
19761;BME280;10039;42.632;23.408;2023-05-27T07:06:01;95062.00;;;18.20;75.67
19761;BME280;10039;42.632;23.408;2023-05-27T07:08:26;95022.31;;;18.02;75.20
19761;BME280;10039;42.632;23.408;2023-05-27T07:10:52;95065.47;;;18.29;75.13
19761;BME280;10039;42.632;23.408;2023-05-27T07:13:17;95041.16;;;18.20;75.22
19761;BME280;10039;42.632;23.408;2023-05-27T07:15:43;95042.00;;;18.35;74.62
19761;BME280;10039;42.632;23.408;2023-05-27T07:18:08;95027.94;;;18.31;73.69
19761;BME280;10039;42.632;23.408;2023-05-27T07:20:34;95030.63;;;18.31;73.77
19761;BME280;10039;42.632;23.408;2023-05-27T07:23:00;95042.06;;;18.50;73.99
19761;BME280;10039;42.632;23.408;2023-05-27T07:25:25;95064.63;;;18.70;73.85
19761;BME280;10039;42.632;23.408;2023-05-27T07:27:51;95065.16;;;18.83;73.79
19761;BME280;10039;42.632;23.408;2023-05-27T07:30:16;95061.81;;;18.88;73.21
19761;BME280;10039;42.632;23.408;2023-05-27T07:32:42;95045.19;;;18.81;73.08
19761;BME280;10039;42.632;23.408;2023-05-27T07:35:07;95063.81;;;19.02;72.96
19761;BME280;10039;42.632;23.408;2023-05-27T07:37:33;95028.94;;;18.81;72.91
19761;BME280;10039;42.632;23.408;2023-05-27T07:39:58;95071.25;;;19.16;72.60
19761;BME280;10039;42.632;23.408;2023-05-27T07:42:24;95055.88;;;19.22;73.02
19761;BME280;10039;42.632;23.408;2023-05-27T07:44:49;95050.34;;;19.17;73.00
19761;BME280;10039;42.632;23.408;2023-05-27T07:47:15;95067.13;;;19.44;72.32
19761;BME280;10039;42.632;23.408;2023-05-27T07:49:40;95063.28;;;19.50;72.57
19761;BME280;10039;42.632;23.408;2023-05-27T07:52:06;95056.00;;;19.56;71.13
19761;BME280;10039;42.632;23.408;2023-05-27T07:54:31;95074.34;;;19.76;71.44
19761;BME280;10039;42.632;23.408;2023-05-27T07:56:57;95062.94;;;19.86;71.10
19761;BME280;10039;42.632;23.408;2023-05-27T07:59:23;95071.38;;;20.03;70.42
19761;BME280;10039;42.632;23.408;2023-05-27T08:01:49;95064.06;;;20.09;69.31
19761;BME280;10039;42.632;23.408;2023-05-27T08:04:14;95049.59;;;20.12;69.82
19761;BME280;10039;42.632;23.408;2023-05-27T08:06:40;95045.38;;;20.11;69.68
19761;BME280;10039;42.632;23.408;2023-05-27T08:09:05;95072.22;;;20.43;68.97
19761;BME280;10039;42.632;23.408;2023-05-27T08:11:32;95057.31;;;20.33;67.83
19761;BME280;10039;42.632;23.408;2023-05-27T08:13:58;95075.88;;;20.54;66.99
19761;BME280;10039;42.632;23.408;2023-05-27T08:16:23;95047.97;;;20.34;67.84
19761;BME280;10039;42.632;23.408;2023-05-27T08:18:49;95068.53;;;20.60;67.24
19761;BME280;10039;42.632;23.408;2023-05-27T08:21:15;95071.06;;;20.64;66.66
19761;BME280;10039;42.632;23.408;2023-05-27T08:23:41;95055.53;;;20.64;67.31
19761;BME280;10039;42.632;23.408;2023-05-27T08:26:06;95070.75;;;20.76;66.87
19761;BME280;10039;42.632;23.408;2023-05-27T08:28:32;95043.56;;;20.56;66.75
19761;BME280;10039;42.632;23.408;2023-05-27T08:31:04;95066.81;;;20.77;66.18
19761;BME280;10039;42.632;23.408;2023-05-27T08:33:30;95069.16;;;20.84;65.55
19761;BME280;10039;42.632;23.408;2023-05-27T08:35:56;95069.03;;;20.79;66.65
19761;BME280;10039;42.632;23.408;2023-05-27T08:38:21;95079.03;;;20.87;65.15
19761;BME280;10039;42.632;23.408;2023-05-27T08:40:47;95076.06;;;20.85;66.08
19761;BME280;10039;42.632;23.408;2023-05-27T08:43:13;95064.66;;;20.81;66.90
19761;BME280;10039;42.632;23.408;2023-05-27T08:45:38;95069.94;;;20.90;65.74
19761;BME280;10039;42.632;23.408;2023-05-27T08:48:08;95063.19;;;20.80;66.82
19761;BME280;10039;42.632;23.408;2023-05-27T08:50:34;95070.66;;;20.85;66.62
19761;BME280;10039;42.632;23.408;2023-05-27T08:53:00;95072.13;;;20.86;66.40
19761;BME280;10039;42.632;23.408;2023-05-27T08:55:27;95054.13;;;20.69;65.01
19761;BME280;10039;42.632;23.408;2023-05-27T08:57:55;95064.53;;;20.76;65.02
19761;BME280;10039;42.632;23.408;2023-05-27T09:00:22;95056.06;;;20.68;64.72
19761;BME280;10039;42.632;23.408;2023-05-27T09:02:48;95066.66;;;20.66;64.44
19761;BME280;10039;42.632;23.408;2023-05-27T09:05:14;95065.44;;;20.67;65.40
19761;BME280;10039;42.632;23.408;2023-05-27T09:07:41;95063.19;;;20.80;64.90
19761;BME280;10039;42.632;23.408;2023-05-27T09:10:07;95054.19;;;20.74;65.29
19761;BME280;10039;42.632;23.408;2023-05-27T09:12:33;95057.84;;;20.71;62.12
19761;BME280;10039;42.632;23.408;2023-05-27T09:14:59;95041.22;;;20.64;63.97
19761;BME280;10039;42.632;23.408;2023-05-27T09:17:25;95057.75;;;20.80;63.96
19761;BME280;10039;42.632;23.408;2023-05-27T09:19:51;95059.97;;;20.82;63.38
19761;BME280;10039;42.632;23.408;2023-05-27T09:22:24;95061.13;;;20.95;63.86
19761;BME280;10039;42.632;23.408;2023-05-27T09:24:53;95058.78;;;21.03;62.24
19761;BME280;10039;42.632;23.408;2023-05-27T09:27:24;95056.44;;;21.16;61.91
19761;BME280;10039;42.632;23.408;2023-05-27T09:29:49;95054.22;;;21.14;63.34
19761;BME280;10039;42.632;23.408;2023-05-27T09:32:31;95048.25;;;21.36;62.56
19761;BME280;10039;42.632;23.408;2023-05-27T09:34:59;95050.03;;;21.39;59.95
19761;BME280;10039;42.632;23.408;2023-05-27T09:37:30;95029.22;;;21.30;59.42
19761;BME280;10039;42.632;23.408;2023-05-27T09:40:07;95055.69;;;21.35;59.13
19761;BME280;10039;42.632;23.408;2023-05-27T09:42:43;95041.88;;;21.39;59.90
19761;BME280;10039;42.632;23.408;2023-05-27T09:45:19;95043.44;;;21.45;60.33
19761;BME280;10039;42.632;23.408;2023-05-27T09:47:52;95042.69;;;21.64;60.48
19761;BME280;10039;42.632;23.408;2023-05-27T09:50:20;95041.66;;;21.87;59.33
19761;BME280;10039;42.632;23.408;2023-05-27T09:52:46;95035.78;;;21.69;57.94
19761;BME280;10039;42.632;23.408;2023-05-27T09:55:13;95022.19;;;21.44;58.97
19761;BME280;10039;42.632;23.408;2023-05-27T09:57:42;95021.94;;;21.67;59.25
19761;BME280;10039;42.632;23.408;2023-05-27T10:00:10;95033.97;;;22.17;58.63
19761;BME280;10039;42.632;23.408;2023-05-27T10:02:44;95030.22;;;22.40;57.16
19761;BME280;10039;42.632;23.408;2023-05-27T10:05:12;95036.75;;;22.59;56.38
19761;BME280;10039;42.632;23.408;2023-05-27T10:07:40;95033.59;;;22.71;55.60
19761;BME280;10039;42.632;23.408;2023-05-27T10:10:11;95014.19;;;22.53;56.33
19761;BME280;10039;42.632;23.408;2023-05-27T10:12:41;95016.78;;;22.72;55.89
19761;BME280;10039;42.632;23.408;2023-05-27T10:15:07;95033.16;;;22.83;54.98
19761;BME280;10039;42.632;23.408;2023-05-27T10:17:47;95034.97;;;22.97;55.52
19761;BME280;10039;42.632;23.408;2023-05-27T10:20:26;95028.56;;;23.06;55.26
19761;BME280;10039;42.632;23.408;2023-05-27T10:22:51;95025.97;;;22.80;54.31
19761;BME280;10039;42.632;23.408;2023-05-27T10:25:17;95032.09;;;22.70;55.95
19761;BME280;10039;42.632;23.408;2023-05-27T10:27:46;95013.19;;;22.97;56.05
19761;BME280;10039;42.632;23.408;2023-05-27T10:30:14;95018.75;;;23.25;53.65
19761;BME280;10039;42.632;23.408;2023-05-27T10:32:49;95021.28;;;23.50;55.09
19761;BME280;10039;42.632;23.408;2023-05-27T10:35:17;95031.47;;;23.72;54.72
19761;BME280;10039;42.632;23.408;2023-05-27T10:37:43;95023.28;;;23.50;54.66
19761;BME280;10039;42.632;23.408;2023-05-27T10:40:09;95008.94;;;23.71;54.94
19761;BME280;10039;42.632;23.408;2023-05-27T10:42:36;94999.78;;;23.80;54.59
19761;BME280;10039;42.632;23.408;2023-05-27T10:45:06;95002.03;;;24.03;53.92
19761;BME280;10039;42.632;23.408;2023-05-27T10:47:34;94999.28;;;24.08;53.81
19761;BME280;10039;42.632;23.408;2023-05-27T10:50:10;94986.63;;;23.78;52.60
19761;BME280;10039;42.632;23.408;2023-05-27T10:52:38;95013.09;;;23.50;53.93
19761;BME280;10039;42.632;23.408;2023-05-27T10:55:05;95008.88;;;23.38;52.64
19761;BME280;10039;42.632;23.408;2023-05-27T10:57:31;95003.34;;;23.16;55.04
19761;BME280;10039;42.632;23.408;2023-05-27T11:00:01;94989.66;;;23.00;53.76
19761;BME280;10039;42.632;23.408;2023-05-27T11:02:30;95010.13;;;22.79;55.89
19761;BME280;10039;42.632;23.408;2023-05-27T11:05:00;94998.72;;;22.69;55.10
19761;BME280;10039;42.632;23.408;2023-05-27T11:07:26;95005.63;;;22.70;56.10
19761;BME280;10039;42.632;23.408;2023-05-27T11:09:53;95001.50;;;22.91;56.44
19761;BME280;10039;42.632;23.408;2023-05-27T11:12:21;95002.94;;;22.81;55.18
19761;BME280;10039;42.632;23.408;2023-05-27T11:14:54;94997.56;;;22.87;55.79
19761;BME280;10039;42.632;23.408;2023-05-27T11:17:21;94965.81;;;22.31;54.76
19761;BME280;10039;42.632;23.408;2023-05-27T11:19:47;94986.69;;;22.40;56.43
19761;BME280;10039;42.632;23.408;2023-05-27T11:22:15;94976.19;;;22.27;57.20
19761;BME280;10039;42.632;23.408;2023-05-27T11:24:42;94987.81;;;22.69;57.21
19761;BME280;10039;42.632;23.408;2023-05-27T11:29:35;94987.66;;;22.95;56.13
19761;BME280;10039;42.632;23.408;2023-05-27T11:32:19;94986.47;;;23.01;55.27
19761;BME280;10039;42.632;23.408;2023-05-27T11:34:46;94974.41;;;23.19;55.78
19761;BME280;10039;42.632;23.408;2023-05-27T11:37:12;94973.69;;;23.29;54.08
19761;BME280;10039;42.632;23.408;2023-05-27T11:39:52;94975.19;;;23.52;54.52
19761;BME280;10039;42.632;23.408;2023-05-27T11:42:24;94976.72;;;23.64;53.55
19761;BME280;10039;42.632;23.408;2023-05-27T11:44:51;94961.31;;;23.50;52.98
19761;BME280;10039;42.632;23.408;2023-05-27T11:47:17;94948.94;;;23.60;53.56
19761;BME280;10039;42.632;23.408;2023-05-27T11:49:42;94961.34;;;23.61;53.21
19761;BME280;10039;42.632;23.408;2023-05-27T11:52:10;94954.66;;;23.84;54.16
19761;BME280;10039;42.632;23.408;2023-05-27T11:54:37;94947.22;;;23.68;53.89
19761;BME280;10039;42.632;23.408;2023-05-27T11:57:03;94957.88;;;23.72;53.52
19761;BME280;10039;42.632;23.408;2023-05-27T11:59:33;94951.94;;;23.84;53.92
19761;BME280;10039;42.632;23.408;2023-05-27T12:01:58;94949.66;;;24.21;53.99
19761;BME280;10039;42.632;23.408;2023-05-27T12:04:24;94949.84;;;24.45;52.07
19761;BME280;10039;42.632;23.408;2023-05-27T12:06:49;94903.56;;;24.06;50.92
19761;BME280;10039;42.632;23.408;2023-05-27T12:09:15;94945.66;;;24.49;51.54
19761;BME280;10039;42.632;23.408;2023-05-27T12:11:41;94935.47;;;24.50;51.15
19761;BME280;10039;42.632;23.408;2023-05-27T12:14:06;94917.47;;;24.08;50.89
19761;BME280;10039;42.632;23.408;2023-05-27T12:16:33;94942.19;;;24.43;51.38
19761;BME280;10039;42.632;23.408;2023-05-27T12:18:58;94927.44;;;24.74;51.82
19761;BME280;10039;42.632;23.408;2023-05-27T12:21:27;94907.59;;;24.73;50.56
19761;BME280;10039;42.632;23.408;2023-05-27T12:23:52;94923.19;;;24.84;50.22
19761;BME280;10039;42.632;23.408;2023-05-27T12:26:18;94877.72;;;24.29;50.05
19761;BME280;10039;42.632;23.408;2023-05-27T12:28:44;94912.13;;;24.54;51.36
19761;BME280;10039;42.632;23.408;2023-05-27T12:31:11;94913.41;;;24.42;51.00
19761;BME280;10039;42.632;23.408;2023-05-27T12:33:36;94905.81;;;23.97;51.70
19761;BME280;10039;42.632;23.408;2023-05-27T12:36:03;94900.56;;;24.10;51.84
19761;BME280;10039;42.632;23.408;2023-05-27T12:38:30;94897.84;;;24.10;52.11
19761;BME280;10039;42.632;23.408;2023-05-27T12:40:56;94887.13;;;24.28;51.47
19761;BME280;10039;42.632;23.408;2023-05-27T12:43:21;94893.81;;;24.38;50.70
19761;BME280;10039;42.632;23.408;2023-05-27T12:45:47;94893.84;;;24.27;50.67
19761;BME280;10039;42.632;23.408;2023-05-27T12:48:13;94881.22;;;24.19;51.25
19761;BME280;10039;42.632;23.408;2023-05-27T12:50:40;94892.84;;;24.36;50.95
19761;BME280;10039;42.632;23.408;2023-05-27T12:53:05;94873.94;;;24.38;51.59
19761;BME280;10039;42.632;23.408;2023-05-27T12:55:31;94881.16;;;24.35;51.45